sensor_id;sensor_type;location;lat;lon;timestamp;P1;durP1;ratioP1;P2;durP2;ratioP2
20480;SDS011;10399;50.754;3.366;2022-08-18T00:01:08;57.00;;;39.08;;
20480;SDS011;10399;50.754;3.366;2022-08-18T00:03:40;52.25;;;39.58;;
20480;SDS011;10399;50.754;3.366;2022-08-18T00:06:24;56.17;;;38.95;;
20480;SDS011;10399;50.754;3.366;2022-08-18T00:08:54;53.95;;;37.35;;
20480;SDS011;10399;50.754;3.366;2022-08-18T00:11:21;52.22;;;38.33;;
20480;SDS011;10399;50.754;3.366;2022-08-18T00:13:49;52.90;;;38.28;;
20480;SDS011;10399;50.754;3.366;2022-08-18T00:16:16;52.50;;;38.53;;
20480;SDS011;10399;50.754;3.366;2022-08-18T00:18:43;55.58;;;40.55;;
20480;SDS011;10399;50.754;3.366;2022-08-18T00:21:10;56.55;;;39.88;;
20480;SDS011;10399;50.754;3.366;2022-08-18T00:23:37;58.25;;;38.97;;
20480;SDS011;10399;50.754;3.366;2022-08-18T00:26:04;55.17;;;39.03;;
20480;SDS011;10399;50.754;3.366;2022-08-18T00:28:31;54.88;;;40.53;;
20480;SDS011;10399;50.754;3.366;2022-08-18T00:30:59;57.42;;;38.75;;
20480;SDS011;10399;50.754;3.366;2022-08-18T00:33:26;55.00;;;39.72;;
20480;SDS011;10399;50.754;3.366;2022-08-18T00:35:53;58.33;;;39.05;;
20480;SDS011;10399;50.754;3.366;2022-08-18T00:38:20;54.63;;;39.58;;
20480;SDS011;10399;50.754;3.366;2022-08-18T00:40:50;60.92;;;42.63;;
20480;SDS011;10399;50.754;3.366;2022-08-18T00:45:53;55.40;;;40.20;;
20480;SDS011;10399;50.754;3.366;2022-08-18T00:48:20;54.17;;;39.13;;
20480;SDS011;10399;50.754;3.366;2022-08-18T00:53:25;53.63;;;38.90;;
20480;SDS011;10399;50.754;3.366;2022-08-18T00:56:05;51.65;;;38.83;;
20480;SDS011;10399;50.754;3.366;2022-08-18T00:58:38;58.08;;;41.63;;
20480;SDS011;10399;50.754;3.366;2022-08-18T01:01:10;56.75;;;40.38;;
20480;SDS011;10399;50.754;3.366;2022-08-18T01:03:39;59.50;;;40.00;;
20480;SDS011;10399;50.754;3.366;2022-08-18T01:06:11;61.33;;;42.50;;
20480;SDS011;10399;50.754;3.366;2022-08-18T01:08:42;61.40;;;41.92;;
20480;SDS011;10399;50.754;3.366;2022-08-18T01:11:11;58.17;;;42.58;;
20480;SDS011;10399;50.754;3.366;2022-08-18T01:13:38;59.22;;;42.08;;
20480;SDS011;10399;50.754;3.366;2022-08-18T01:16:08;62.13;;;42.65;;
20480;SDS011;10399;50.754;3.366;2022-08-18T01:18:53;63.63;;;43.17;;
20480;SDS011;10399;50.754;3.366;2022-08-18T01:21:40;61.85;;;43.30;;
20480;SDS011;10399;50.754;3.366;2022-08-18T01:24:28;70.30;;;44.05;;
20480;SDS011;10399;50.754;3.366;2022-08-18T01:27:19;63.70;;;43.38;;
20480;SDS011;10399;50.754;3.366;2022-08-18T01:29:47;63.03;;;42.00;;
20480;SDS011;10399;50.754;3.366;2022-08-18T01:32:16;63.67;;;43.08;;
20480;SDS011;10399;50.754;3.366;2022-08-18T01:34:46;62.35;;;42.45;;
20480;SDS011;10399;50.754;3.366;2022-08-18T01:37:19;72.72;;;43.55;;
20480;SDS011;10399;50.754;3.366;2022-08-18T01:39:48;72.65;;;46.55;;
20480;SDS011;10399;50.754;3.366;2022-08-18T01:42:37;82.13;;;45.03;;
20480;SDS011;10399;50.754;3.366;2022-08-18T01:45:05;86.32;;;49.65;;
20480;SDS011;10399;50.754;3.366;2022-08-18T01:47:33;91.85;;;49.55;;
20480;SDS011;10399;50.754;3.366;2022-08-18T01:50:14;102.78;;;49.05;;
20480;SDS011;10399;50.754;3.366;2022-08-18T01:52:41;84.18;;;49.75;;
20480;SDS011;10399;50.754;3.366;2022-08-18T01:55:09;94.25;;;49.25;;
20480;SDS011;10399;50.754;3.366;2022-08-18T01:57:37;108.55;;;49.42;;
20480;SDS011;10399;50.754;3.366;2022-08-18T02:00:15;93.03;;;50.42;;
20480;SDS011;10399;50.754;3.366;2022-08-18T02:02:44;89.00;;;52.38;;
20480;SDS011;10399;50.754;3.366;2022-08-18T02:05:30;83.38;;;52.42;;
20480;SDS011;10399;50.754;3.366;2022-08-18T02:08:03;94.03;;;51.50;;
20480;SDS011;10399;50.754;3.366;2022-08-18T02:10:31;86.97;;;52.65;;
20480;SDS011;10399;50.754;3.366;2022-08-18T02:13:00;84.60;;;51.40;;
20480;SDS011;10399;50.754;3.366;2022-08-18T02:15:27;91.55;;;53.80;;
20480;SDS011;10399;50.754;3.366;2022-08-18T02:17:54;86.22;;;52.30;;
20480;SDS011;10399;50.754;3.366;2022-08-18T02:20:21;90.15;;;49.47;;
20480;SDS011;10399;50.754;3.366;2022-08-18T02:22:48;101.25;;;52.20;;
20480;SDS011;10399;50.754;3.366;2022-08-18T02:25:16;92.57;;;52.95;;
20480;SDS011;10399;50.754;3.366;2022-08-18T02:27:44;91.40;;;51.70;;
20480;SDS011;10399;50.754;3.366;2022-08-18T02:30:12;91.68;;;51.78;;
20480;SDS011;10399;50.754;3.366;2022-08-18T02:32:41;93.00;;;53.70;;
20480;SDS011;10399;50.754;3.366;2022-08-18T02:35:08;99.00;;;52.70;;
20480;SDS011;10399;50.754;3.366;2022-08-18T02:37:38;92.30;;;53.47;;
20480;SDS011;10399;50.754;3.366;2022-08-18T02:40:13;87.15;;;50.30;;
20480;SDS011;10399;50.754;3.366;2022-08-18T02:42:41;91.57;;;52.30;;
20480;SDS011;10399;50.754;3.366;2022-08-18T02:45:09;87.63;;;52.35;;
20480;SDS011;10399;50.754;3.366;2022-08-18T02:47:38;83.80;;;49.78;;
20480;SDS011;10399;50.754;3.366;2022-08-18T02:50:08;85.63;;;49.15;;
20480;SDS011;10399;50.754;3.366;2022-08-18T02:52:36;82.90;;;49.28;;
20480;SDS011;10399;50.754;3.366;2022-08-18T02:55:05;87.07;;;49.92;;
20480;SDS011;10399;50.754;3.366;2022-08-18T02:57:33;94.78;;;51.25;;
20480;SDS011;10399;50.754;3.366;2022-08-18T03:00:00;90.78;;;51.45;;
20480;SDS011;10399;50.754;3.366;2022-08-18T03:02:28;85.07;;;50.55;;
20480;SDS011;10399;50.754;3.366;2022-08-18T03:04:55;86.80;;;49.75;;
20480;SDS011;10399;50.754;3.366;2022-08-18T03:07:22;90.10;;;50.70;;
20480;SDS011;10399;50.754;3.366;2022-08-18T03:09:50;86.03;;;49.95;;
20480;SDS011;10399;50.754;3.366;2022-08-18T03:12:17;80.43;;;49.17;;
20480;SDS011;10399;50.754;3.366;2022-08-18T03:14:44;86.47;;;51.92;;
20480;SDS011;10399;50.754;3.366;2022-08-18T03:17:12;91.68;;;50.92;;
20480;SDS011;10399;50.754;3.366;2022-08-18T03:19:40;81.20;;;49.20;;
20480;SDS011;10399;50.754;3.366;2022-08-18T03:22:12;79.55;;;48.58;;
20480;SDS011;10399;50.754;3.366;2022-08-18T03:24:56;86.20;;;50.70;;
20480;SDS011;10399;50.754;3.366;2022-08-18T03:27:24;89.28;;;48.47;;
20480;SDS011;10399;50.754;3.366;2022-08-18T03:29:54;81.38;;;48.45;;
20480;SDS011;10399;50.754;3.366;2022-08-18T03:32:24;89.93;;;48.08;;
20480;SDS011;10399;50.754;3.366;2022-08-18T03:34:51;82.60;;;48.60;;
20480;SDS011;10399;50.754;3.366;2022-08-18T03:37:18;130.98;;;48.65;;
20480;SDS011;10399;50.754;3.366;2022-08-18T03:39:46;88.72;;;49.65;;
20480;SDS011;10399;50.754;3.366;2022-08-18T03:42:17;107.80;;;48.10;;
20480;SDS011;10399;50.754;3.366;2022-08-18T03:44:44;77.28;;;47.28;;
20480;SDS011;10399;50.754;3.366;2022-08-18T03:47:11;78.70;;;46.65;;
20480;SDS011;10399;50.754;3.366;2022-08-18T03:49:39;97.18;;;46.85;;
20480;SDS011;10399;50.754;3.366;2022-08-18T03:52:07;96.22;;;48.55;;
20480;SDS011;10399;50.754;3.366;2022-08-18T03:54:35;76.88;;;45.67;;
20480;SDS011;10399;50.754;3.366;2022-08-18T03:57:06;74.53;;;45.17;;
20480;SDS011;10399;50.754;3.366;2022-08-18T03:59:34;75.00;;;45.65;;
20480;SDS011;10399;50.754;3.366;2022-08-18T04:02:03;72.85;;;44.95;;
20480;SDS011;10399;50.754;3.366;2022-08-18T04:04:30;74.25;;;44.50;;
20480;SDS011;10399;50.754;3.366;2022-08-18T04:07:00;75.57;;;46.80;;
20480;SDS011;10399;50.754;3.366;2022-08-18T04:09:31;77.53;;;47.83;;
20480;SDS011;10399;50.754;3.366;2022-08-18T04:12:02;83.35;;;48.38;;
20480;SDS011;10399;50.754;3.366;2022-08-18T04:14:42;81.95;;;45.55;;
20480;SDS011;10399;50.754;3.366;2022-08-18T04:17:13;79.60;;;44.88;;
20480;SDS011;10399;50.754;3.366;2022-08-18T04:19:41;72.38;;;44.85;;
20480;SDS011;10399;50.754;3.366;2022-08-18T04:22:07;74.93;;;45.88;;
20480;SDS011;10399;50.754;3.366;2022-08-18T04:24:42;72.97;;;44.28;;
20480;SDS011;10399;50.754;3.366;2022-08-18T04:27:10;73.50;;;45.08;;
20480;SDS011;10399;50.754;3.366;2022-08-18T04:29:37;71.45;;;43.20;;
20480;SDS011;10399;50.754;3.366;2022-08-18T04:32:04;71.85;;;43.10;;
20480;SDS011;10399;50.754;3.366;2022-08-18T04:34:32;84.90;;;41.65;;
20480;SDS011;10399;50.754;3.366;2022-08-18T04:36:59;61.42;;;41.92;;
20480;SDS011;10399;50.754;3.366;2022-08-18T04:39:27;56.85;;;39.80;;
20480;SDS011;10399;50.754;3.366;2022-08-18T04:41:55;74.45;;;42.45;;
20480;SDS011;10399;50.754;3.366;2022-08-18T04:44:24;61.88;;;41.20;;
20480;SDS011;10399;50.754;3.366;2022-08-18T04:46:51;61.22;;;42.40;;
20480;SDS011;10399;50.754;3.366;2022-08-18T04:49:20;64.05;;;42.75;;
20480;SDS011;10399;50.754;3.366;2022-08-18T04:51:49;79.95;;;40.10;;
20480;SDS011;10399;50.754;3.366;2022-08-18T04:54:56;63.15;;;41.08;;
20480;SDS011;10399;50.754;3.366;2022-08-18T04:57:23;61.83;;;41.75;;
20480;SDS011;10399;50.754;3.366;2022-08-18T04:59:51;67.93;;;41.65;;
20480;SDS011;10399;50.754;3.366;2022-08-18T05:02:19;64.47;;;41.75;;
20480;SDS011;10399;50.754;3.366;2022-08-18T05:04:46;71.90;;;41.40;;
20480;SDS011;10399;50.754;3.366;2022-08-18T05:07:16;73.57;;;43.92;;
20480;SDS011;10399;50.754;3.366;2022-08-18T05:09:45;81.75;;;40.75;;
20480;SDS011;10399;50.754;3.366;2022-08-18T05:12:12;81.85;;;42.92;;
20480;SDS011;10399;50.754;3.366;2022-08-18T05:14:41;87.47;;;42.70;;
20480;SDS011;10399;50.754;3.366;2022-08-18T05:17:12;67.72;;;42.67;;
20480;SDS011;10399;50.754;3.366;2022-08-18T05:19:41;76.45;;;43.40;;
20480;SDS011;10399;50.754;3.366;2022-08-18T05:22:10;62.13;;;43.33;;
20480;SDS011;10399;50.754;3.366;2022-08-18T05:24:43;98.07;;;41.50;;
20480;SDS011;10399;50.754;3.366;2022-08-18T05:27:11;67.97;;;42.67;;
20480;SDS011;10399;50.754;3.366;2022-08-18T05:29:38;68.47;;;40.70;;
20480;SDS011;10399;50.754;3.366;2022-08-18T05:32:11;66.78;;;38.63;;
20480;SDS011;10399;50.754;3.366;2022-08-18T05:35:03;69.30;;;39.25;;
20480;SDS011;10399;50.754;3.366;2022-08-18T05:37:42;90.90;;;39.80;;
20480;SDS011;10399;50.754;3.366;2022-08-18T05:40:15;82.18;;;41.13;;
20480;SDS011;10399;50.754;3.366;2022-08-18T05:42:43;69.03;;;39.85;;
20480;SDS011;10399;50.754;3.366;2022-08-18T05:45:12;60.63;;;40.13;;
20480;SDS011;10399;50.754;3.366;2022-08-18T05:47:42;84.10;;;42.45;;
20480;SDS011;10399;50.754;3.366;2022-08-18T05:50:11;69.18;;;41.08;;
20480;SDS011;10399;50.754;3.366;2022-08-18T05:52:54;68.97;;;41.72;;
20480;SDS011;10399;50.754;3.366;2022-08-18T05:58:49;70.88;;;41.97;;
20480;SDS011;10399;50.754;3.366;2022-08-18T06:01:19;77.20;;;40.72;;
20480;SDS011;10399;50.754;3.366;2022-08-18T06:03:53;65.80;;;40.03;;
20480;SDS011;10399;50.754;3.366;2022-08-18T06:06:31;96.55;;;40.38;;
20480;SDS011;10399;50.754;3.366;2022-08-18T06:09:04;69.80;;;43.20;;
20480;SDS011;10399;50.754;3.366;2022-08-18T06:11:38;82.65;;;43.83;;
20480;SDS011;10399;50.754;3.366;2022-08-18T06:14:05;81.50;;;43.70;;
20480;SDS011;10399;50.754;3.366;2022-08-18T06:22:06;75.32;;;43.25;;
20480;SDS011;10399;50.754;3.366;2022-08-18T06:24:45;75.82;;;42.25;;
20480;SDS011;10399;50.754;3.366;2022-08-18T06:30:08;73.30;;;40.63;;
20480;SDS011;10399;50.754;3.366;2022-08-18T06:35:35;135.93;;;40.58;;
20480;SDS011;10399;50.754;3.366;2022-08-18T06:38:30;89.78;;;43.42;;
20480;SDS011;10399;50.754;3.366;2022-08-18T06:41:08;72.85;;;43.58;;
20480;SDS011;10399;50.754;3.366;2022-08-18T06:44:06;76.60;;;46.92;;
20480;SDS011;10399;50.754;3.366;2022-08-18T06:46:48;81.47;;;47.28;;
20480;SDS011;10399;50.754;3.366;2022-08-18T06:52:25;82.68;;;48.47;;
20480;SDS011;10399;50.754;3.366;2022-08-18T06:54:58;90.88;;;46.47;;
20480;SDS011;10399;50.754;3.366;2022-08-18T06:57:31;95.85;;;49.70;;
20480;SDS011;10399;50.754;3.366;2022-08-18T07:00:22;91.63;;;47.25;;
20480;SDS011;10399;50.754;3.366;2022-08-18T07:02:55;96.30;;;48.80;;
20480;SDS011;10399;50.754;3.366;2022-08-18T07:05:27;93.35;;;48.63;;
20480;SDS011;10399;50.754;3.366;2022-08-18T07:10:51;96.03;;;49.10;;
20480;SDS011;10399;50.754;3.366;2022-08-18T07:13:26;95.75;;;51.30;;
20480;SDS011;10399;50.754;3.366;2022-08-18T07:19:12;99.22;;;49.35;;
20480;SDS011;10399;50.754;3.366;2022-08-18T07:21:46;101.75;;;50.33;;
20480;SDS011;10399;50.754;3.366;2022-08-18T07:24:43;95.18;;;49.20;;
20480;SDS011;10399;50.754;3.366;2022-08-18T07:32:47;86.45;;;46.33;;
20480;SDS011;10399;50.754;3.366;2022-08-18T07:35:21;83.88;;;45.85;;
20480;SDS011;10399;50.754;3.366;2022-08-18T07:38:01;81.90;;;44.25;;
20480;SDS011;10399;50.754;3.366;2022-08-18T07:41:05;76.82;;;41.55;;
20480;SDS011;10399;50.754;3.366;2022-08-18T07:48:52;77.93;;;42.03;;
20480;SDS011;10399;50.754;3.366;2022-08-18T07:51:24;72.38;;;40.50;;
20480;SDS011;10399;50.754;3.366;2022-08-18T07:54:15;67.03;;;39.47;;
20480;SDS011;10399;50.754;3.366;2022-08-18T08:02:26;66.60;;;40.72;;
20480;SDS011;10399;50.754;3.366;2022-08-18T08:08:08;67.22;;;40.38;;
20480;SDS011;10399;50.754;3.366;2022-08-18T08:11:04;62.88;;;39.97;;
20480;SDS011;10399;50.754;3.366;2022-08-18T08:19:11;63.58;;;38.63;;
20480;SDS011;10399;50.754;3.366;2022-08-18T08:22:12;59.10;;;36.63;;
20480;SDS011;10399;50.754;3.366;2022-08-18T08:29:59;58.17;;;36.35;;
20480;SDS011;10399;50.754;3.366;2022-08-18T08:32:31;52.50;;;36.35;;
20480;SDS011;10399;50.754;3.366;2022-08-18T08:35:06;57.40;;;36.38;;
20480;SDS011;10399;50.754;3.366;2022-08-18T08:37:59;57.15;;;36.70;;
20480;SDS011;10399;50.754;3.366;2022-08-18T08:41:03;54.17;;;38.42;;
20480;SDS011;10399;50.754;3.366;2022-08-18T08:43:41;54.63;;;36.28;;
20480;SDS011;10399;50.754;3.366;2022-08-18T08:46:18;56.08;;;37.53;;
20480;SDS011;10399;50.754;3.366;2022-08-18T08:49:05;55.47;;;36.13;;
20480;SDS011;10399;50.754;3.366;2022-08-18T08:51:46;53.75;;;35.13;;
20480;SDS011;10399;50.754;3.366;2022-08-18T08:56:52;51.47;;;33.35;;
20480;SDS011;10399;50.754;3.366;2022-08-18T08:59:23;54.28;;;34.78;;
20480;SDS011;10399;50.754;3.366;2022-08-18T09:07:41;51.03;;;33.88;;
20480;SDS011;10399;50.754;3.366;2022-08-18T09:16:10;50.10;;;31.70;;
20480;SDS011;10399;50.754;3.366;2022-08-18T09:18:55;43.88;;;31.73;;
20480;SDS011;10399;50.754;3.366;2022-08-18T09:21:46;46.70;;;30.90;;
20480;SDS011;10399;50.754;3.366;2022-08-18T09:29:48;37.83;;;26.95;;
20480;SDS011;10399;50.754;3.366;2022-08-18T09:38:21;34.28;;;25.20;;
20480;SDS011;10399;50.754;3.366;2022-08-18T09:41:18;34.70;;;25.70;;
20480;SDS011;10399;50.754;3.366;2022-08-18T09:46:56;32.40;;;24.98;;
20480;SDS011;10399;50.754;3.366;2022-08-18T09:57:42;25.98;;;20.95;;
20480;SDS011;10399;50.754;3.366;2022-08-18T10:00:24;29.80;;;22.30;;
20480;SDS011;10399;50.754;3.366;2022-08-18T10:05:26;28.65;;;21.83;;
20480;SDS011;10399;50.754;3.366;2022-08-18T10:16:58;26.98;;;22.63;;
20480;SDS011;10399;50.754;3.366;2022-08-18T10:19:58;27.98;;;22.48;;
20480;SDS011;10399;50.754;3.366;2022-08-18T10:22:52;24.90;;;18.33;;
20480;SDS011;10399;50.754;3.366;2022-08-18T10:27:59;28.33;;;20.65;;
20480;SDS011;10399;50.754;3.366;2022-08-18T10:33:53;24.40;;;20.38;;
20480;SDS011;10399;50.754;3.366;2022-08-18T10:40:12;22.77;;;18.10;;
20480;SDS011;10399;50.754;3.366;2022-08-18T10:42:22;22.52;;;18.33;;
20480;SDS011;10399;50.754;3.366;2022-08-18T10:45:14;22.65;;;18.17;;
20480;SDS011;10399;50.754;3.366;2022-08-18T10:50:54;24.15;;;20.23;;
20480;SDS011;10399;50.754;3.366;2022-08-18T10:53:33;26.02;;;20.38;;
20480;SDS011;10399;50.754;3.366;2022-08-18T11:07:28;21.83;;;18.65;;
20480;SDS011;10399;50.754;3.366;2022-08-18T11:10:21;24.08;;;20.90;;
20480;SDS011;10399;50.754;3.366;2022-08-18T11:18:47;22.55;;;16.63;;
20480;SDS011;10399;50.754;3.366;2022-08-18T11:24:28;21.25;;;16.15;;
20480;SDS011;10399;50.754;3.366;2022-08-18T11:27:16;21.20;;;17.13;;
20480;SDS011;10399;50.754;3.366;2022-08-18T11:29:48;22.90;;;18.38;;
20480;SDS011;10399;50.754;3.366;2022-08-18T11:45:51;22.75;;;19.35;;
20480;SDS011;10399;50.754;3.366;2022-08-18T11:48:39;17.88;;;15.68;;
20480;SDS011;10399;50.754;3.366;2022-08-18T11:51:19;19.42;;;15.73;;
20480;SDS011;10399;50.754;3.366;2022-08-18T11:53:55;19.83;;;16.55;;
20480;SDS011;10399;50.754;3.366;2022-08-18T11:56:48;21.33;;;17.95;;
20480;SDS011;10399;50.754;3.366;2022-08-18T12:02:15;23.10;;;18.88;;
20480;SDS011;10399;50.754;3.366;2022-08-18T12:04:43;20.65;;;18.45;;
20480;SDS011;10399;50.754;3.366;2022-08-18T12:07:25;20.33;;;18.33;;
20480;SDS011;10399;50.754;3.366;2022-08-18T12:12:54;15.65;;;14.05;;
20480;SDS011;10399;50.754;3.366;2022-08-18T12:15:28;22.02;;;19.20;;
20480;SDS011;10399;50.754;3.366;2022-08-18T12:18:11;19.95;;;17.77;;
20480;SDS011;10399;50.754;3.366;2022-08-18T12:20:58;22.08;;;18.10;;
20480;SDS011;10399;50.754;3.366;2022-08-18T12:23:28;19.52;;;16.92;;
20480;SDS011;10399;50.754;3.366;2022-08-18T12:26:13;19.65;;;16.40;;
20480;SDS011;10399;50.754;3.366;2022-08-18T12:29:01;22.15;;;17.25;;
20480;SDS011;10399;50.754;3.366;2022-08-18T12:31:28;22.23;;;19.27;;
20480;SDS011;10399;50.754;3.366;2022-08-18T12:34:13;24.80;;;19.23;;
20480;SDS011;10399;50.754;3.366;2022-08-18T12:36:40;21.95;;;19.60;;
20480;SDS011;10399;50.754;3.366;2022-08-18T12:39:08;23.50;;;18.35;;
20480;SDS011;10399;50.754;3.366;2022-08-18T12:41:36;21.20;;;18.98;;
20480;SDS011;10399;50.754;3.366;2022-08-18T12:44:03;20.60;;;17.48;;
20480;SDS011;10399;50.754;3.366;2022-08-18T12:46:38;20.70;;;17.00;;
20480;SDS011;10399;50.754;3.366;2022-08-18T12:49:25;18.30;;;16.45;;
20480;SDS011;10399;50.754;3.366;2022-08-18T12:51:54;24.10;;;16.05;;
20480;SDS011;10399;50.754;3.366;2022-08-18T12:54:23;18.42;;;16.45;;
20480;SDS011;10399;50.754;3.366;2022-08-18T12:56:51;16.30;;;14.65;;
20480;SDS011;10399;50.754;3.366;2022-08-18T12:59:21;18.80;;;16.80;;
20480;SDS011;10399;50.754;3.366;2022-08-18T13:01:49;22.50;;;17.15;;
20480;SDS011;10399;50.754;3.366;2022-08-18T13:04:24;20.65;;;17.23;;
20480;SDS011;10399;50.754;3.366;2022-08-18T13:07:11;19.77;;;17.30;;
20480;SDS011;10399;50.754;3.366;2022-08-18T13:09:39;19.15;;;16.88;;
20480;SDS011;10399;50.754;3.366;2022-08-18T13:12:19;20.80;;;17.35;;
20480;SDS011;10399;50.754;3.366;2022-08-18T13:14:49;23.30;;;16.70;;
20480;SDS011;10399;50.754;3.366;2022-08-18T13:17:17;20.10;;;17.08;;
20480;SDS011;10399;50.754;3.366;2022-08-18T13:19:59;19.45;;;14.48;;
20480;SDS011;10399;50.754;3.366;2022-08-18T13:22:33;17.52;;;15.20;;
20480;SDS011;10399;50.754;3.366;2022-08-18T13:25:01;21.08;;;17.63;;
20480;SDS011;10399;50.754;3.366;2022-08-18T13:27:30;17.05;;;14.93;;
20480;SDS011;10399;50.754;3.366;2022-08-18T13:30:02;18.02;;;15.73;;
20480;SDS011;10399;50.754;3.366;2022-08-18T13:32:54;21.85;;;16.77;;
20480;SDS011;10399;50.754;3.366;2022-08-18T13:35:27;21.15;;;17.25;;
20480;SDS011;10399;50.754;3.366;2022-08-18T13:38:03;17.63;;;14.40;;
20480;SDS011;10399;50.754;3.366;2022-08-18T13:40:45;21.00;;;17.35;;
20480;SDS011;10399;50.754;3.366;2022-08-18T13:43:16;21.50;;;17.52;;
20480;SDS011;10399;50.754;3.366;2022-08-18T13:45:48;19.83;;;16.60;;
20480;SDS011;10399;50.754;3.366;2022-08-18T13:48:21;23.17;;;16.70;;
20480;SDS011;10399;50.754;3.366;2022-08-18T13:50:49;18.02;;;15.82;;
20480;SDS011;10399;50.754;3.366;2022-08-18T13:53:21;21.25;;;16.15;;
20480;SDS011;10399;50.754;3.366;2022-08-18T13:55:50;19.67;;;15.65;;
20480;SDS011;10399;50.754;3.366;2022-08-18T13:58:17;17.75;;;14.55;;
20480;SDS011;10399;50.754;3.366;2022-08-18T14:00:47;12.52;;;10.75;;
20480;SDS011;10399;50.754;3.366;2022-08-18T14:03:20;15.38;;;12.25;;
20480;SDS011;10399;50.754;3.366;2022-08-18T14:06:09;17.23;;;12.68;;
20480;SDS011;10399;50.754;3.366;2022-08-18T14:08:38;14.38;;;12.88;;
20480;SDS011;10399;50.754;3.366;2022-08-18T14:11:06;14.75;;;11.40;;
20480;SDS011;10399;50.754;3.366;2022-08-18T14:13:34;13.93;;;10.48;;
20480;SDS011;10399;50.754;3.366;2022-08-18T14:16:09;8.80;;;7.80;;
20480;SDS011;10399;50.754;3.366;2022-08-18T14:18:44;9.55;;;7.80;;
20480;SDS011;10399;50.754;3.366;2022-08-18T14:21:37;15.32;;;11.00;;
20480;SDS011;10399;50.754;3.366;2022-08-18T14:24:37;15.88;;;14.13;;
20480;SDS011;10399;50.754;3.366;2022-08-18T14:27:26;16.73;;;13.88;;
20480;SDS011;10399;50.754;3.366;2022-08-18T14:30:03;17.25;;;14.88;;
20480;SDS011;10399;50.754;3.366;2022-08-18T14:32:35;16.85;;;14.00;;
20480;SDS011;10399;50.754;3.366;2022-08-18T14:35:14;18.70;;;14.90;;
20480;SDS011;10399;50.754;3.366;2022-08-18T14:38:02;16.05;;;13.40;;
20480;SDS011;10399;50.754;3.366;2022-08-18T14:40:31;13.82;;;11.35;;
20480;SDS011;10399;50.754;3.366;2022-08-18T14:42:59;16.77;;;14.80;;
20480;SDS011;10399;50.754;3.366;2022-08-18T14:45:33;16.73;;;14.40;;
20480;SDS011;10399;50.754;3.366;2022-08-18T14:48:01;18.50;;;15.82;;
20480;SDS011;10399;50.754;3.366;2022-08-18T14:50:32;17.90;;;13.00;;
20480;SDS011;10399;50.754;3.366;2022-08-18T14:53:00;13.73;;;12.30;;
20480;SDS011;10399;50.754;3.366;2022-08-18T14:55:28;14.98;;;12.75;;
20480;SDS011;10399;50.754;3.366;2022-08-18T14:57:56;11.77;;;10.52;;
20480;SDS011;10399;50.754;3.366;2022-08-18T15:00:25;17.17;;;12.90;;
20480;SDS011;10399;50.754;3.366;2022-08-18T15:02:53;14.02;;;12.48;;
20480;SDS011;10399;50.754;3.366;2022-08-18T15:05:25;13.27;;;11.20;;
20480;SDS011;10399;50.754;3.366;2022-08-18T15:07:59;13.25;;;11.80;;
20480;SDS011;10399;50.754;3.366;2022-08-18T15:10:30;15.85;;;12.57;;
20480;SDS011;10399;50.754;3.366;2022-08-18T15:12:58;13.43;;;12.02;;
20480;SDS011;10399;50.754;3.366;2022-08-18T15:15:26;13.07;;;9.88;;
20480;SDS011;10399;50.754;3.366;2022-08-18T15:18:15;13.95;;;10.63;;
20480;SDS011;10399;50.754;3.366;2022-08-18T15:20:48;10.38;;;9.23;;
20480;SDS011;10399;50.754;3.366;2022-08-18T15:23:55;9.88;;;7.88;;
20480;SDS011;10399;50.754;3.366;2022-08-18T15:26:46;10.02;;;8.93;;
20480;SDS011;10399;50.754;3.366;2022-08-18T15:29:23;9.13;;;7.72;;
20480;SDS011;10399;50.754;3.366;2022-08-18T15:31:54;11.75;;;8.80;;
20480;SDS011;10399;50.754;3.366;2022-08-18T15:34:35;12.70;;;9.00;;
20480;SDS011;10399;50.754;3.366;2022-08-18T15:37:16;13.05;;;9.68;;
20480;SDS011;10399;50.754;3.366;2022-08-18T15:39:45;13.10;;;11.30;;
20480;SDS011;10399;50.754;3.366;2022-08-18T15:42:21;14.95;;;10.23;;
20480;SDS011;10399;50.754;3.366;2022-08-18T15:44:49;15.15;;;11.90;;
20480;SDS011;10399;50.754;3.366;2022-08-18T15:47:19;13.35;;;10.60;;
20480;SDS011;10399;50.754;3.366;2022-08-18T15:49:47;17.50;;;11.30;;
20480;SDS011;10399;50.754;3.366;2022-08-18T15:52:16;13.07;;;10.35;;
20480;SDS011;10399;50.754;3.366;2022-08-18T15:54:45;14.70;;;10.23;;
20480;SDS011;10399;50.754;3.366;2022-08-18T15:57:16;13.68;;;10.63;;
20480;SDS011;10399;50.754;3.366;2022-08-18T16:00:03;13.73;;;10.88;;
20480;SDS011;10399;50.754;3.366;2022-08-18T16:02:31;12.77;;;9.93;;
20480;SDS011;10399;50.754;3.366;2022-08-18T16:05:04;14.20;;;10.20;;
20480;SDS011;10399;50.754;3.366;2022-08-18T16:07:39;12.20;;;9.88;;
20480;SDS011;10399;50.754;3.366;2022-08-18T16:10:11;12.05;;;10.05;;
20480;SDS011;10399;50.754;3.366;2022-08-18T16:12:39;14.27;;;10.25;;
20480;SDS011;10399;50.754;3.366;2022-08-18T16:15:11;11.77;;;10.43;;
20480;SDS011;10399;50.754;3.366;2022-08-18T16:17:48;16.60;;;10.82;;
20480;SDS011;10399;50.754;3.366;2022-08-18T16:20:17;13.90;;;12.02;;
20480;SDS011;10399;50.754;3.366;2022-08-18T16:22:45;12.95;;;11.52;;
20480;SDS011;10399;50.754;3.366;2022-08-18T16:25:13;13.63;;;11.52;;
20480;SDS011;10399;50.754;3.366;2022-08-18T16:27:42;16.77;;;11.40;;
20480;SDS011;10399;50.754;3.366;2022-08-18T16:30:11;14.40;;;10.57;;
20480;SDS011;10399;50.754;3.366;2022-08-18T16:32:41;14.52;;;10.23;;
20480;SDS011;10399;50.754;3.366;2022-08-18T16:35:08;11.57;;;9.68;;
20480;SDS011;10399;50.754;3.366;2022-08-18T16:37:36;14.93;;;9.95;;
20480;SDS011;10399;50.754;3.366;2022-08-18T16:40:03;17.73;;;11.13;;
20480;SDS011;10399;50.754;3.366;2022-08-18T16:42:34;13.07;;;8.93;;
20480;SDS011;10399;50.754;3.366;2022-08-18T16:45:02;18.58;;;9.93;;
20480;SDS011;10399;50.754;3.366;2022-08-18T16:47:31;12.93;;;11.30;;
20480;SDS011;10399;50.754;3.366;2022-08-18T16:49:59;13.23;;;10.07;;
20480;SDS011;10399;50.754;3.366;2022-08-18T16:52:26;13.25;;;9.57;;
20480;SDS011;10399;50.754;3.366;2022-08-18T16:54:53;13.15;;;10.23;;
20480;SDS011;10399;50.754;3.366;2022-08-18T16:57:23;15.73;;;11.65;;
20480;SDS011;10399;50.754;3.366;2022-08-18T17:00:20;17.52;;;11.25;;
20480;SDS011;10399;50.754;3.366;2022-08-18T17:03:07;15.68;;;11.02;;
20480;SDS011;10399;50.754;3.366;2022-08-18T17:05:59;16.55;;;12.10;;
20480;SDS011;10399;50.754;3.366;2022-08-18T17:08:28;16.23;;;11.20;;
20480;SDS011;10399;50.754;3.366;2022-08-18T17:11:03;12.18;;;10.07;;
20480;SDS011;10399;50.754;3.366;2022-08-18T17:13:35;12.55;;;10.50;;
20480;SDS011;10399;50.754;3.366;2022-08-18T17:16:03;23.67;;;11.00;;
20480;SDS011;10399;50.754;3.366;2022-08-18T17:18:30;14.18;;;11.13;;
20480;SDS011;10399;50.754;3.366;2022-08-18T17:21:02;14.40;;;9.30;;
20480;SDS011;10399;50.754;3.366;2022-08-18T17:23:31;13.57;;;9.57;;
20480;SDS011;10399;50.754;3.366;2022-08-18T17:25:58;12.20;;;9.82;;
20480;SDS011;10399;50.754;3.366;2022-08-18T17:28:44;10.75;;;9.30;;
20480;SDS011;10399;50.754;3.366;2022-08-18T17:31:21;13.98;;;9.63;;
20480;SDS011;10399;50.754;3.366;2022-08-18T17:33:50;15.40;;;9.38;;
20480;SDS011;10399;50.754;3.366;2022-08-18T17:36:30;11.23;;;9.35;;
20480;SDS011;10399;50.754;3.366;2022-08-18T17:39:18;14.02;;;9.43;;
20480;SDS011;10399;50.754;3.366;2022-08-18T17:41:49;14.50;;;9.65;;